Carson Information

FAA: CXP - ICAO: KCXP

Carson (Airport) Location

State Nevada
County Carson City
City Carson City
Carson (Airport) is 3 miles northeast of Carson City, NV.
Latitude 39-11-32.3000N
Longitude 119-43-57.3000W
Elevation 4,704ft

Carson METARs

METAR KCXP 250035Z AUTO 00000KT 2SM -RA BKN031 BKN041 11/10 A2957 RMK AO2
Altimeter 29.57"
Temperature 11.0°C (51.8°F)
Wind 0° at 0KT
Clouds broken at 3,100ft broken at 4,100ft
Visibility 2.0mi
Time observed: 2021-10-25T00:35:00Z

Carson (Airport) Details

Status Operational
Activation April 1940
Ownership Public
Usage Public
Chart SAN FRANCISCO
ATC on-site No
Beacon schedule sunset-sunrise
Beacon color clear green

Carson (Airport) Contacts

Owner CARSON CITY AIRPORT AUTHORITY
Owner address 2600 E. COLLEGE PARKWAY, NO. 6, CARSON CITY, NV 89706
Owner phone 775-885-2255
Manager R.W. KOHLER
Manager address 1600 N. WEBSTER, N. PLATTE, NE 69101
Manager phone 308-532-9263

Carson Radio Frequencies

Carson (Airport) Radio Frequencies

UNICOM 123
Common traffic advisory frequency (CTAF) 123